Time;durP1;ratioP1;P1;durP2;ratioP2;P2;SDS_P1;SDS_P2;PMS_P1;PMS_P2;Temp;Humidity;BMP_temperature;BMP_pressure;BME280_temperature;BME280_humidity;BME280_pressure;Samples;Min_cycle;Max_cycle;Signal;HPM_P1;HPM_P2
2022/03/08 00:00:16;;;;;;;5.83;4.30;;;;;;;;;;5322166;28;20023;-68
2022/03/08 00:02:47;;;;;;;8.37;4.20;;;;;;;;;;5322596;28;20419;-68
2022/03/08 00:05:18;;;;;;;5.40;3.50;;;;;;;;;;5322711;28;20015;-69
2022/03/08 00:07:50;;;;;;;6.07;4.13;;;;;;;;;;5322880;28;20101;-68
2022/03/08 00:10:22;;;;;;;6.17;3.83;;;;;;;;;;5323928;28;20011;-68
2022/03/08 00:12:53;;;;;;;6.47;3.70;;;;;;;;;;5325733;28;20135;-67
2022/03/08 00:15:25;;;;;;;6.20;3.63;;;;;;;;;;5327203;28;20081;-67
2022/03/08 00:17:56;;;;;;;5.87;3.43;;;;;;;;;;5326809;28;20024;-67
2022/03/08 00:20:27;;;;;;;6.33;3.43;;;;;;;;;;5326514;28;20031;-68
2022/03/08 00:22:59;;;;;;;5.80;3.60;;;;;;;;;;5326477;28;20104;-68
2022/03/08 00:25:30;;;;;;;7.03;4.27;;;;;;;;;;5326689;28;20030;-68
2022/03/08 00:28:01;;;;;;;7.20;3.98;;;;;;;;;;5325763;28;20573;-67
2022/03/08 00:30:32;;;;;;;6.83;3.80;;;;;;;;;;5326806;28;20521;-67
2022/03/08 00:33:04;;;;;;;7.17;3.37;;;;;;;;;;5326139;28;20111;-68
2022/03/08 00:35:35;;;;;;;4.98;3.24;;;;;;;;;;5326473;28;20039;-67
2022/03/08 00:38:06;;;;;;;5.43;3.23;;;;;;;;;;5326514;28;20015;-68
2022/03/08 00:40:37;;;;;;;5.48;3.36;;;;;;;;;;5325915;28;20091;-68
2022/03/08 00:43:08;;;;;;;6.10;3.62;;;;;;;;;;5326492;28;20019;-67
2022/03/08 00:45:39;;;;;;;6.98;4.16;;;;;;;;;;5326433;28;20015;-68
2022/03/08 00:48:11;;;;;;;6.37;3.00;;;;;;;;;;5325547;28;20334;-68
2022/03/08 00:50:42;;;;;;;5.97;3.30;;;;;;;;;;5326093;28;20020;-67
2022/03/08 00:53:13;;;;;;;7.12;3.46;;;;;;;;;;5326123;28;20500;-67
2022/03/08 00:55:44;;;;;;;5.03;2.97;;;;;;;;;;5325127;28;20489;-68
2022/03/08 00:58:15;;;;;;;7.32;3.12;;;;;;;;;;5326587;28;20019;-68
2022/03/08 01:00:47;;;;;;;6.40;3.06;;;;;;;;;;5325821;28;20095;-68
2022/03/08 01:03:18;;;;;;;4.44;3.34;;;;;;;;;;5325458;28;20028;-68
2022/03/08 01:05:49;;;;;;;8.93;3.50;;;;;;;;;;5325768;28;20023;-68
2022/03/08 01:08:20;;;;;;;5.88;3.20;;;;;;;;;;5325567;28;20373;-68
2022/03/08 01:10:52;;;;;;;6.90;3.30;;;;;;;;;;5325351;28;20168;-68
2022/03/08 01:13:24;;;;;;;4.37;2.77;;;;;;;;;;5326061;28;20027;-67
2022/03/08 01:15:55;;;;;;;5.57;2.70;;;;;;;;;;5324473;28;20023;-68
2022/03/08 01:18:26;;;;;;;5.70;3.33;;;;;;;;;;5326196;28;20026;-68
2022/03/08 01:20:58;;;;;;;5.97;2.90;;;;;;;;;;5325480;28;20032;-68
2022/03/08 01:23:29;;;;;;;5.10;3.10;;;;;;;;;;5324770;28;20012;-68
2022/03/08 01:26:00;;;;;;;5.70;2.93;;;;;;;;;;5325395;28;20027;-68
2022/03/08 01:28:32;;;;;;;4.70;2.63;;;;;;;;;;5325528;28;20020;-69
2022/03/08 01:31:03;;;;;;;4.48;3.14;;;;;;;;;;5324535;28;20480;-68
2022/03/08 01:33:35;;;;;;;5.80;2.80;;;;;;;;;;5325380;28;20385;-68
2022/03/08 01:36:06;;;;;;;3.77;2.67;;;;;;;;;;5325219;28;20032;-68
2022/03/08 01:38:37;;;;;;;6.33;3.10;;;;;;;;;;5324544;28;20361;-66
2022/03/08 01:41:08;;;;;;;4.58;2.96;;;;;;;;;;5325448;28;20054;-67
2022/03/08 01:43:39;;;;;;;5.20;2.97;;;;;;;;;;5324441;28;20030;-67
2022/03/08 01:46:12;;;;;;;5.03;2.87;;;;;;;;;;5325119;28;20046;-67
2022/03/08 01:48:43;;;;;;;6.07;3.20;;;;;;;;;;5325121;28;20019;-68
2022/03/08 01:51:15;;;;;;;5.40;3.03;;;;;;;;;;5324215;28;20023;-67
2022/03/08 01:53:47;;;;;;;5.30;2.63;;;;;;;;;;5324447;28;20093;-67
2022/03/08 01:56:18;;;;;;;6.10;3.10;;;;;;;;;;5325380;28;20012;-67
2022/03/08 01:58:49;;;;;;;4.03;2.53;;;;;;;;;;5323785;28;20030;-67
2022/03/08 02:01:20;;;;;;;4.20;2.70;;;;;;;;;;5325017;28;20095;-67
2022/03/08 02:03:51;;;;;;;4.63;3.00;;;;;;;;;;5324285;28;20012;-68
2022/03/08 02:06:22;;;;;;;4.87;2.80;;;;;;;;;;5324214;28;20016;-68
2022/03/08 02:08:54;;;;;;;5.38;3.00;;;;;;;;;;5324422;28;20016;-67
2022/03/08 02:11:26;;;;;;;6.27;2.70;;;;;;;;;;5324769;28;20043;-67
2022/03/08 02:13:57;;;;;;;5.07;3.00;;;;;;;;;;5323410;28;20031;-67
2022/03/08 02:16:28;;;;;;;4.57;3.13;;;;;;;;;;5324961;28;20012;-67
2022/03/08 02:19:00;;;;;;;7.53;3.63;;;;;;;;;;5323512;28;20058;-67
2022/03/08 02:21:34;;;;;;;6.50;2.87;;;;;;;;;;5324481;28;20096;-67
2022/03/08 02:24:06;;;;;;;3.40;2.37;;;;;;;;;;5324184;28;20027;-67
2022/03/08 02:26:37;;;;;;;5.17;3.07;;;;;;;;;;5323369;28;20381;-68
2022/03/08 02:29:09;;;;;;;5.10;2.67;;;;;;;;;;5324464;28;20027;-68
2022/03/08 02:31:40;;;;;;;4.40;2.40;;;;;;;;;;5324223;28;20043;-68
2022/03/08 02:34:11;;;;;;;7.20;3.06;;;;;;;;;;5322435;28;20074;-68
2022/03/08 02:37:11;;;;;;;6.55;3.50;;;;;;;;;;5324027;28;20020;-68
2022/03/08 02:39:43;;;;;;;5.67;3.00;;;;;;;;;;5323448;28;20019;-68
2022/03/08 02:42:15;;;;;;;6.17;3.17;;;;;;;;;;5323943;28;20012;-68
2022/03/08 02:44:46;;;;;;;4.30;3.13;;;;;;;;;;5323326;28;20011;-68
2022/03/08 02:47:17;;;;;;;4.88;2.66;;;;;;;;;;5323233;28;20020;-68
2022/03/08 02:49:48;;;;;;;5.26;3.46;;;;;;;;;;5323489;28;20105;-68
2022/03/08 02:52:19;;;;;;;5.90;3.86;;;;;;;;;;5323912;28;20135;-67
2022/03/08 02:54:50;;;;;;;6.70;3.14;;;;;;;;;;5322445;28;20035;-68
2022/03/08 02:57:22;;;;;;;5.27;3.33;;;;;;;;;;5323804;28;20045;-68
2022/03/08 02:59:53;;;;;;;5.00;3.53;;;;;;;;;;5323020;28;20125;-67
2022/03/08 03:02:24;;;;;;;6.72;3.78;;;;;;;;;;5323089;28;20059;-67
2022/03/08 03:04:55;;;;;;;6.53;3.67;;;;;;;;;;5323168;28;20016;-67
2022/03/08 03:07:26;;;;;;;3.84;2.64;;;;;;;;;;5323784;28;20043;-67
2022/03/08 03:09:57;;;;;;;7.60;3.40;;;;;;;;;;5322229;28;20016;-67
2022/03/08 03:12:29;;;;;;;5.63;3.13;;;;;;;;;;5323376;28;20075;-67
2022/03/08 03:15:00;;;;;;;4.77;3.30;;;;;;;;;;5322580;28;20045;-67
2022/03/08 03:17:31;;;;;;;4.97;3.63;;;;;;;;;;5323346;28;20064;-67
2022/03/08 03:20:04;;;;;;;6.12;3.90;;;;;;;;;;5323249;28;20051;-67
2022/03/08 03:22:35;;;;;;;4.37;3.00;;;;;;;;;;5322267;28;20011;-67
2022/03/08 03:25:07;;;;;;;5.97;3.40;;;;;;;;;;5322942;28;20027;-67
2022/03/08 03:27:39;;;;;;;5.30;3.07;;;;;;;;;;5323069;28;20343;-67
2022/03/08 03:30:11;;;;;;;5.13;3.37;;;;;;;;;;5322451;28;20015;-68
2022/03/08 03:32:43;;;;;;;5.03;3.37;;;;;;;;;;5322936;28;20110;-67
2022/03/08 03:35:14;;;;;;;4.53;3.30;;;;;;;;;;5322980;28;20090;-68
2022/03/08 03:37:45;;;;;;;4.50;2.93;;;;;;;;;;5322039;28;20019;-68
2022/03/08 03:40:16;;;;;;;5.57;3.40;;;;;;;;;;5323404;28;20098;-68
2022/03/08 03:42:48;;;;;;;4.67;3.23;;;;;;;;;;5322451;28;20016;-68
2022/03/08 03:45:19;;;;;;;4.50;3.53;;;;;;;;;;5324696;28;20528;-67
2022/03/08 03:47:50;;;;;;;5.77;3.80;;;;;;;;;;5326801;28;20051;-67
2022/03/08 03:50:21;;;;;;;6.50;3.85;;;;;;;;;;5326822;28;20480;-67
2022/03/08 03:52:53;;;;;;;4.94;3.04;;;;;;;;;;5326881;28;20118;-67
2022/03/08 03:55:25;;;;;;;4.33;3.20;;;;;;;;;;5327524;28;20008;-68
2022/03/08 03:57:56;;;;;;;5.83;3.40;;;;;;;;;;5326004;28;20446;-68
2022/03/08 04:00:27;;;;;;;4.66;3.16;;;;;;;;;;5327264;28;20020;-68
2022/03/08 04:02:58;;;;;;;5.72;4.03;;;;;;;;;;5326628;28;20011;-67
2022/03/08 04:05:29;;;;;;;5.50;3.60;;;;;;;;;;5326182;28;20044;-67
2022/03/08 04:08:01;;;;;;;5.87;4.13;;;;;;;;;;5326843;28;20019;-67
2022/03/08 04:10:32;;;;;;;4.97;3.88;;;;;;;;;;5326541;28;20119;-67
2022/03/08 04:13:03;;;;;;;5.77;3.70;;;;;;;;;;5325821;28;20607;-67
2022/03/08 04:15:35;;;;;;;5.63;3.50;;;;;;;;;;5326888;28;20454;-67
2022/03/08 04:18:06;;;;;;;5.60;3.50;;;;;;;;;;5326542;28;20012;-67
2022/03/08 04:20:37;;;;;;;6.10;3.30;;;;;;;;;;5325995;28;20023;-67
2022/03/08 04:23:08;;;;;;;6.38;4.22;;;;;;;;;;5326542;28;20046;-67
2022/03/08 04:25:39;;;;;;;6.77;4.40;;;;;;;;;;5325902;28;20015;-67
2022/03/08 04:28:10;;;;;;;7.94;4.16;;;;;;;;;;5326584;28;20028;-67
2022/03/08 04:30:41;;;;;;;6.80;3.58;;;;;;;;;;5326517;28;20160;-67
2022/03/08 04:33:13;;;;;;;5.23;4.23;;;;;;;;;;5325338;28;20035;-67
2022/03/08 04:35:44;;;;;;;6.40;3.97;;;;;;;;;;5326178;28;20019;-67
2022/03/08 04:38:15;;;;;;;6.47;4.30;;;;;;;;;;5326864;28;20019;-67
2022/03/08 04:40:46;;;;;;;7.70;4.03;;;;;;;;;;5325342;28;20030;-68
2022/03/08 04:43:17;;;;;;;6.90;4.07;;;;;;;;;;5326394;28;20016;-67
2022/03/08 04:45:49;;;;;;;6.46;4.16;;;;;;;;;;5325845;28;20412;-67
2022/03/08 04:48:20;;;;;;;7.47;4.10;;;;;;;;;;5325515;28;20359;-67
2022/03/08 04:50:51;;;;;;;9.03;4.37;;;;;;;;;;5325986;28;20026;-68
2022/03/08 04:53:22;;;;;;;6.43;3.73;;;;;;;;;;5325401;28;20027;-68
2022/03/08 04:55:53;;;;;;;7.60;3.80;;;;;;;;;;5325124;28;20091;-68
2022/03/08 04:58:24;;;;;;;4.88;3.17;;;;;;;;;;5325787;28;20023;-68
2022/03/08 05:00:55;;;;;;;8.33;4.03;;;;;;;;;;5324526;28;20484;-68
2022/03/08 05:03:27;;;;;;;6.40;3.48;;;;;;;;;;5325896;28;20369;-68
2022/03/08 05:05:58;;;;;;;5.72;4.10;;;;;;;;;;5325498;28;20157;-68
2022/03/08 05:08:29;;;;;;;5.07;3.83;;;;;;;;;;5324771;28;20020;-66
2022/03/08 05:11:02;;;;;;;8.20;3.95;;;;;;;;;;5325390;28;20148;-67
2022/03/08 05:13:33;;;;;;;7.63;3.60;;;;;;;;;;5325561;28;20035;-67
2022/03/08 05:16:04;;;;;;;12.50;4.07;;;;;;;;;;5324855;28;20030;-67
2022/03/08 05:18:35;;;;;;;5.23;3.97;;;;;;;;;;5325527;28;20019;-68
2022/03/08 05:21:06;;;;;;;6.50;3.98;;;;;;;;;;5325360;28;20016;-67
2022/03/08 05:23:38;;;;;;;5.83;3.80;;;;;;;;;;5324584;28;20012;-67
2022/03/08 05:26:09;;;;;;;6.53;3.90;;;;;;;;;;5324850;28;20035;-67
2022/03/08 05:28:42;;;;;;;7.10;4.07;;;;;;;;;;5324489;28;20015;-67
2022/03/08 05:31:13;;;;;;;7.83;3.87;;;;;;;;;;5325054;28;20024;-67
2022/03/08 05:33:45;;;;;;;5.87;4.10;;;;;;;;;;5324880;28;20104;-67
2022/03/08 05:36:16;;;;;;;6.13;3.40;;;;;;;;;;5324664;28;20015;-68
2022/03/08 05:38:47;;;;;;;8.83;4.43;;;;;;;;;;5325105;28;20033;-68
2022/03/08 05:41:18;;;;;;;7.10;3.97;;;;;;;;;;5325461;28;20019;-68
2022/03/08 05:43:49;;;;;;;6.90;3.63;;;;;;;;;;5324037;28;20029;-68
2022/03/08 05:46:20;;;;;;;6.60;3.93;;;;;;;;;;5325135;28;20016;-67
2022/03/08 05:48:52;;;;;;;7.28;3.76;;;;;;;;;;5324411;28;20024;-67
2022/03/08 05:51:23;;;;;;;8.30;3.93;;;;;;;;;;5324518;28;20020;-67
2022/03/08 05:53:54;;;;;;;6.10;4.73;;;;;;;;;;5324300;28;20032;-67
2022/03/08 05:56:25;;;;;;;7.17;3.80;;;;;;;;;;5324969;28;20016;-68
2022/03/08 05:58:56;;;;;;;6.13;3.90;;;;;;;;;;5323442;28;20040;-67
2022/03/08 06:01:27;;;;;;;8.37;3.87;;;;;;;;;;5324887;28;20445;-68
2022/03/08 06:03:59;;;;;;;7.70;4.45;;;;;;;;;;5323168;28;20037;-68
2022/03/08 06:06:30;;;;;;;5.13;3.40;;;;;;;;;;5324199;28;20024;-68
2022/03/08 06:09:01;;;;;;;5.87;3.97;;;;;;;;;;5324405;28;20019;-68
2022/03/08 06:11:32;;;;;;;5.80;3.70;;;;;;;;;;5323363;28;20047;-68
2022/03/08 06:14:03;;;;;;;5.37;3.87;;;;;;;;;;5323993;28;20123;-68
2022/03/08 06:16:34;;;;;;;6.10;4.14;;;;;;;;;;5324071;28;20369;-68
2022/03/08 06:19:06;;;;;;;6.22;4.16;;;;;;;;;;5323269;28;20480;-68
2022/03/08 06:21:37;;;;;;;8.77;4.47;;;;;;;;;;5324093;28;20381;-68
2022/03/08 06:24:10;;;;;;;5.20;3.60;;;;;;;;;;5323814;28;20020;-68
2022/03/08 06:26:42;;;;;;;5.37;3.03;;;;;;;;;;5323370;28;20023;-68
2022/03/08 06:29:13;;;;;;;4.67;3.53;;;;;;;;;;5324485;28;20446;-68
2022/03/08 06:31:44;;;;;;;7.27;4.50;;;;;;;;;;5323466;28;20020;-68
2022/03/08 06:34:15;;;;;;;8.30;4.40;;;;;;;;;;5323719;28;20488;-68
2022/03/08 06:36:46;;;;;;;6.53;3.97;;;;;;;;;;5323336;28;20015;-68
2022/03/08 06:39:18;;;;;;;6.28;4.28;;;;;;;;;;5323196;28;20030;-68
2022/03/08 06:41:49;;;;;;;6.97;4.47;;;;;;;;;;5323441;28;20450;-68
2022/03/08 06:44:20;;;;;;;8.27;4.13;;;;;;;;;;5324364;28;20027;-68
2022/03/08 06:46:51;;;;;;;6.30;3.30;;;;;;;;;;5322619;28;20007;-68
2022/03/08 06:49:23;;;;;;;6.02;3.42;;;;;;;;;;5324009;28;20093;-68
2022/03/08 06:51:54;;;;;;;6.63;3.30;;;;;;;;;;5323328;28;20039;-68
2022/03/08 06:54:25;;;;;;;8.38;4.57;;;;;;;;;;5323218;28;20084;-67
2022/03/08 06:56:56;;;;;;;4.82;3.80;;;;;;;;;;5323359;28;20007;-68
2022/03/08 06:59:27;;;;;;;6.80;3.77;;;;;;;;;;5323859;28;20073;-68
2022/03/08 07:01:59;;;;;;;8.67;5.33;;;;;;;;;;5322500;28;20015;-68
2022/03/08 07:04:30;;;;;;;9.20;4.90;;;;;;;;;;5323578;28;20023;-68
2022/03/08 07:07:01;;;;;;;7.24;3.60;;;;;;;;;;5322712;28;20103;-68
2022/03/08 07:09:32;;;;;;;6.03;3.20;;;;;;;;;;5323362;28;20027;-68
2022/03/08 07:12:04;;;;;;;5.22;3.42;;;;;;;;;;5322981;28;20043;-68
2022/03/08 07:14:36;;;;;;;6.80;3.20;;;;;;;;;;5322714;28;20031;-68
2022/03/08 07:17:07;;;;;;;6.38;2.83;;;;;;;;;;5323203;28;20043;-68
2022/03/08 07:19:38;;;;;;;4.00;3.17;;;;;;;;;;5322964;28;20069;-68
2022/03/08 07:22:10;;;;;;;5.13;3.30;;;;;;;;;;5322522;28;20258;-68
2022/03/08 07:24:41;;;;;;;4.78;3.13;;;;;;;;;;5323518;28;20043;-68
2022/03/08 07:27:12;;;;;;;6.40;2.95;;;;;;;;;;5323438;28;20020;-68
2022/03/08 07:29:44;;;;;;;6.30;3.25;;;;;;;;;;5322583;28;20041;-68
2022/03/08 07:32:15;;;;;;;4.15;3.10;;;;;;;;;;5323440;28;20024;-68
2022/03/08 07:34:46;;;;;;;4.54;2.54;;;;;;;;;;5322776;28;20039;-68
2022/03/08 07:37:18;;;;;;;4.08;2.62;;;;;;;;;;5322533;28;20043;-67
2022/03/08 07:39:49;;;;;;;5.10;3.70;;;;;;;;;;5322828;28;20019;-68
2022/03/08 07:42:20;;;;;;;6.43;3.30;;;;;;;;;;5322820;28;20095;-67
2022/03/08 07:44:51;;;;;;;7.13;2.65;;;;;;;;;;5322707;28;20186;-67
2022/03/08 07:47:23;;;;;;;6.75;3.20;;;;;;;;;;5323341;28;20024;-68
2022/03/08 07:49:54;;;;;;;4.97;3.22;;;;;;;;;;5321473;28;20266;-68
2022/03/08 07:52:25;;;;;;;5.13;3.50;;;;;;;;;;5323282;28;20055;-68
2022/03/08 07:54:57;;;;;;;4.22;2.85;;;;;;;;;;5322724;28;20072;-69
2022/03/08 07:57:28;;;;;;;5.00;3.08;;;;;;;;;;5322574;28;20059;-68
2022/03/08 07:59:59;;;;;;;4.47;3.00;;;;;;;;;;5322442;28;20028;-69
2022/03/08 08:02:30;;;;;;;4.96;2.70;;;;;;;;;;5323142;28;20054;-68
2022/03/08 08:05:01;;;;;;;7.06;2.80;;;;;;;;;;5322151;28;20464;-68
2022/03/08 08:07:33;;;;;;;4.00;3.17;;;;;;;;;;5322869;28;20012;-68
2022/03/08 08:10:04;;;;;;;5.72;3.00;;;;;;;;;;5322767;28;20036;-69
2022/03/08 08:12:35;;;;;;;5.85;2.90;;;;;;;;;;5322256;28;20358;-67
2022/03/08 08:15:07;;;;;;;5.80;2.90;;;;;;;;;;5313950;28;20019;-67
2022/03/08 08:17:38;;;;;;;4.20;2.95;;;;;;;;;;5299962;28;20034;-67
2022/03/08 08:20:10;;;;;;;4.80;2.95;;;;;;;;;;5300800;28;20026;-67
2022/03/08 08:22:41;;;;;;;5.20;3.13;;;;;;;;;;5300928;28;20386;-67
2022/03/08 08:25:12;;;;;;;3.28;2.40;;;;;;;;;;5300665;28;20012;-67
2022/03/08 08:27:43;;;;;;;3.75;2.83;;;;;;;;;;5301492;28;20020;-68
2022/03/08 08:30:14;;;;;;;7.53;2.72;;;;;;;;;;5301499;28;20054;-67
2022/03/08 08:32:46;;;;;;;3.85;2.80;;;;;;;;;;5302663;28;20025;-68
2022/03/08 08:35:18;;;;;;;6.32;2.75;;;;;;;;;;5305661;28;20031;-69
2022/03/08 08:37:49;;;;;;;5.45;3.38;;;;;;;;;;5305068;28;20075;-68
2022/03/08 08:40:21;;;;;;;5.18;3.03;;;;;;;;;;5304881;28;20051;-67
2022/03/08 08:42:52;;;;;;;3.90;2.33;;;;;;;;;;5305031;28;20055;-68
2022/03/08 08:45:23;;;;;;;6.03;3.20;;;;;;;;;;5304904;28;20103;-68
2022/03/08 08:47:54;;;;;;;5.32;3.10;;;;;;;;;;5304326;28;20285;-68
2022/03/08 08:50:26;;;;;;;4.88;3.28;;;;;;;;;;5305373;28;20024;-68
2022/03/08 08:52:57;;;;;;;9.48;2.55;;;;;;;;;;5303727;28;20032;-68
2022/03/08 08:55:28;;;;;;;11.70;2.95;;;;;;;;;;5304890;28;20450;-68
2022/03/08 08:57:59;;;;;;;2.97;2.35;;;;;;;;;;5304575;28;20023;-67
2022/03/08 09:00:31;;;;;;;5.45;2.25;;;;;;;;;;5303884;28;20517;-68
2022/03/08 09:03:02;;;;;;;5.05;2.25;;;;;;;;;;5304499;28;20278;-68
2022/03/08 09:05:33;;;;;;;4.68;2.75;;;;;;;;;;5304462;28;20344;-69
2022/03/08 09:08:04;;;;;;;4.02;2.26;;;;;;;;;;5303931;28;20436;-69
2022/03/08 09:10:36;;;;;;;6.22;2.33;;;;;;;;;;5304244;28;20057;-68
2022/03/08 09:13:07;;;;;;;4.68;2.05;;;;;;;;;;5304366;28;20058;-68
2022/03/08 09:15:38;;;;;;;5.03;2.22;;;;;;;;;;5303504;28;20020;-69
2022/03/08 09:18:09;;;;;;;7.82;2.92;;;;;;;;;;5304217;28;20111;-68
2022/03/08 09:20:41;;;;;;;6.20;2.67;;;;;;;;;;5303210;28;20439;-68
2022/03/08 09:23:12;;;;;;;6.97;2.60;;;;;;;;;;5304073;28;20458;-69
2022/03/08 09:25:43;;;;;;;4.60;2.92;;;;;;;;;;5304187;28;20016;-68
2022/03/08 09:28:15;;;;;;;7.14;2.62;;;;;;;;;;5303314;28;20030;-68
2022/03/08 09:30:48;;;;;;;5.03;2.50;;;;;;;;;;5303874;28;20013;-68
2022/03/08 09:33:19;;;;;;;5.07;2.70;;;;;;;;;;5304229;28;20028;-67
2022/03/08 09:35:50;;;;;;;3.92;2.25;;;;;;;;;;5302901;28;20024;-68
2022/03/08 09:38:21;;;;;;;3.22;1.83;;;;;;;;;;5303953;28;20024;-67
2022/03/08 09:40:54;;;;;;;4.30;2.00;;;;;;;;;;5303910;28;20524;-67
2022/03/08 09:43:25;;;;;;;2.95;1.90;;;;;;;;;;5303045;28;20148;-67
2022/03/08 09:45:56;;;;;;;5.40;2.00;;;;;;;;;;5303640;28;20068;-67
2022/03/08 09:48:28;;;;;;;3.10;2.25;;;;;;;;;;5304106;28;20009;-67
2022/03/08 09:51:03;;;;;;;4.82;2.00;;;;;;;;;;5302324;28;20020;-68
2022/03/08 09:53:35;;;;;;;3.10;1.83;;;;;;;;;;5303454;28;20042;-68
2022/03/08 09:56:06;;;;;;;4.32;2.00;;;;;;;;;;5302809;28;20027;-68
2022/03/08 09:58:37;;;;;;;6.82;1.90;;;;;;;;;;5303354;28;20510;-68
2022/03/08 10:01:08;;;;;;;3.97;1.92;;;;;;;;;;5303708;28;20382;-68
2022/03/08 10:03:42;;;;;;;3.13;2.00;;;;;;;;;;5302910;28;20142;-68
2022/03/08 10:06:13;;;;;;;4.40;2.08;;;;;;;;;;5303461;28;20382;-68
2022/03/08 10:08:45;;;;;;;6.03;2.38;;;;;;;;;;5303196;28;20016;-68
2022/03/08 10:11:16;;;;;;;6.40;2.10;;;;;;;;;;5302649;28;20155;-67
2022/03/08 10:13:50;;;;;;;6.32;2.17;;;;;;;;;;5302920;28;20031;-68
2022/03/08 10:16:22;;;;;;;5.88;2.40;;;;;;;;;;5303760;28;20027;-68
2022/03/08 10:18:57;;;;;;;6.28;2.13;;;;;;;;;;5302193;28;20035;-67
2022/03/08 10:21:47;;;;;;;4.43;2.42;;;;;;;;;;5303414;28;20546;-67
2022/03/08 10:24:22;;;;;;;4.70;1.85;;;;;;;;;;5302651;28;20161;-68
2022/03/08 10:26:56;;;;;;;3.88;1.90;;;;;;;;;;5302787;28;20032;-68
2022/03/08 10:29:36;;;;;;;4.25;2.30;;;;;;;;;;5298678;28;20059;-68
2022/03/08 10:32:08;;;;;;;3.92;2.55;;;;;;;;;;5301669;28;20019;-66
2022/03/08 10:34:40;;;;;;;4.93;2.55;;;;;;;;;;5302936;28;20367;-68
2022/03/08 10:37:14;;;;;;;4.18;2.25;;;;;;;;;;5302760;28;20026;-67
2022/03/08 10:39:53;;;;;;;7.60;2.50;;;;;;;;;;5301077;28;20047;-67
2022/03/08 10:42:31;;;;;;;4.90;2.13;;;;;;;;;;5302855;28;20394;-66
2022/03/08 10:45:10;;;;;;;5.40;2.28;;;;;;;;;;5301892;28;20379;-68
2022/03/08 10:47:41;;;;;;;;;;;;;;;;;;5302516;28;20097;-67
2022/03/08 10:50:16;;;;;;;4.03;2.15;;;;;;;;;;5298176;28;19908;-67
2022/03/08 10:52:49;;;;;;;3.38;2.42;;;;;;;;;;5300921;28;20408;-68
2022/03/08 10:55:26;;;;;;;3.03;2.00;;;;;;;;;;5302124;28;20141;-67
2022/03/08 10:58:18;;;;;;;5.47;2.38;;;;;;;;;;5301818;28;20028;-67
2022/03/08 11:00:54;;;;;;;4.05;2.08;;;;;;;;;;5300947;28;20020;-67
2022/03/08 11:03:26;;;;;;;5.95;2.30;;;;;;;;;;5302035;28;20027;-67
2022/03/08 11:06:04;;;;;;;3.83;2.13;;;;;;;;;;5301508;28;20370;-67
2022/03/08 11:08:36;;;;;;;3.03;2.00;;;;;;;;;;5302651;28;20020;-67
2022/03/08 11:11:07;;;;;;;5.40;1.98;;;;;;;;;;5302099;28;20040;-68
2022/03/08 11:13:39;;;;;;;9.10;2.88;;;;;;;;;;5302257;28;20115;-67
2022/03/08 11:16:11;;;;;;;5.00;2.10;;;;;;;;;;5301984;28;20044;-67
2022/03/08 11:18:50;;;;;;;5.60;2.15;;;;;;;;;;5301235;28;20038;-67
2022/03/08 11:21:21;;;;;;;6.70;2.27;;;;;;;;;;5301781;28;20266;-67
2022/03/08 11:23:54;;;;;;;5.72;2.53;;;;;;;;;;5301245;28;20362;-67
2022/03/08 11:26:25;;;;;;;6.75;1.60;;;;;;;;;;5302225;28;20022;-67
2022/03/08 11:28:57;;;;;;;5.85;2.35;;;;;;;;;;5300558;28;20020;-67
2022/03/08 11:31:30;;;;;;;5.65;2.30;;;;;;;;;;5302377;28;20020;-66
2022/03/08 11:34:06;;;;;;;8.32;2.70;;;;;;;;;;5301717;28;20043;-67
2022/03/08 11:36:58;;;;;;;3.75;2.30;;;;;;;;;;5300576;28;20016;-67
2022/03/08 11:39:30;;;;;;;6.18;2.40;;;;;;;;;;5301996;28;20024;-67
2022/03/08 11:42:20;;;;;;;5.97;2.75;;;;;;;;;;5299625;28;20390;-67
2022/03/08 11:44:56;;;;;;;4.13;2.47;;;;;;;;;;5300649;28;20032;-67
2022/03/08 11:47:35;;;;;;;5.20;2.38;;;;;;;;;;5301723;28;20114;-67
2022/03/08 11:50:17;;;;;;;6.15;2.42;;;;;;;;;;5300637;28;20023;-67
2022/03/08 11:52:51;;;;;;;4.25;1.90;;;;;;;;;;5300473;28;20024;-67
2022/03/08 11:55:26;;;;;;;5.95;2.20;;;;;;;;;;5301358;28;20024;-67
2022/03/08 11:57:58;;;;;;;6.28;2.40;;;;;;;;;;5298335;28;20485;-66
2022/03/08 12:00:33;;;;;;;6.20;2.35;;;;;;;;;;5301551;28;20023;-66
2022/03/08 12:03:06;;;;;;;3.08;2.10;;;;;;;;;;5300879;28;20407;-67
2022/03/08 12:05:38;;;;;;;7.18;2.45;;;;;;;;;;5302265;28;20020;-67
2022/03/08 12:08:21;;;;;;;4.55;2.28;;;;;;;;;;5305540;28;20030;-66
2022/03/08 12:10:57;;;;;;;6.82;2.35;;;;;;;;;;5304284;28;20066;-66
2022/03/08 12:13:30;;;;;;;5.18;2.58;;;;;;;;;;5305640;28;20036;-68
2022/03/08 12:16:10;;;;;;;5.72;2.30;;;;;;;;;;5305500;28;20369;-68
2022/03/08 12:18:51;;;;;;;9.23;2.35;;;;;;;;;;5304546;28;20467;-68
2022/03/08 12:21:23;;;;;;;5.18;2.67;;;;;;;;;;5305789;28;20030;-68
2022/03/08 12:23:54;;;;;;;7.32;2.40;;;;;;;;;;5304301;28;20024;-68
2022/03/08 12:26:30;;;;;;;5.43;2.47;;;;;;;;;;5305332;28;20035;-67
2022/03/08 12:29:15;;;;;;;8.23;2.50;;;;;;;;;;5305551;28;20278;-67
2022/03/08 12:31:58;;;;;;;8.90;2.22;;;;;;;;;;5304264;28;20027;-67
2022/03/08 12:34:39;;;;;;;4.95;2.38;;;;;;;;;;5305323;28;20064;-67
2022/03/08 12:37:14;;;;;;;7.40;2.40;;;;;;;;;;5305437;28;20077;-67
2022/03/08 12:39:54;;;;;;;8.70;2.50;;;;;;;;;;5304168;28;20038;-67
2022/03/08 12:42:30;;;;;;;7.53;2.35;;;;;;;;;;5305503;28;20111;-68
2022/03/08 12:45:01;;;;;;;4.97;2.13;;;;;;;;;;5304331;28;20035;-67
2022/03/08 12:47:34;;;;;;;4.68;2.00;;;;;;;;;;5304833;28;20028;-68
2022/03/08 12:50:09;;;;;;;6.50;2.30;;;;;;;;;;5304926;28;20293;-67
2022/03/08 12:52:45;;;;;;;8.70;1.98;;;;;;;;;;5304214;28;20441;-67
2022/03/08 12:55:18;;;;;;;7.53;2.75;;;;;;;;;;5305090;28;20016;-67
2022/03/08 12:57:57;;;;;;;5.03;2.17;;;;;;;;;;5304355;28;20024;-67
2022/03/08 13:00:33;;;;;;;7.78;2.33;;;;;;;;;;5304380;28;20066;-67
2022/03/08 13:03:10;;;;;;;7.40;2.10;;;;;;;;;;5305078;28;20031;-68
2022/03/08 13:05:45;;;;;;;4.82;2.10;;;;;;;;;;5303908;28;20028;-67
2022/03/08 13:08:17;;;;;;;5.05;2.30;;;;;;;;;;5304933;28;20016;-67
2022/03/08 13:10:59;;;;;;;9.27;2.10;;;;;;;;;;5304202;28;20098;-67
2022/03/08 13:13:30;;;;;;;6.68;2.15;;;;;;;;;;5303643;28;20419;-68
2022/03/08 13:16:02;;;;;;;10.25;2.38;;;;;;;;;;5304532;28;20072;-67
2022/03/08 13:18:36;;;;;;;5.53;2.20;;;;;;;;;;5303526;28;20123;-67
2022/03/08 13:21:08;;;;;;;8.00;2.17;;;;;;;;;;5303614;28;20465;-67
2022/03/08 13:23:43;;;;;;;4.32;1.70;;;;;;;;;;5304343;28;20024;-67
2022/03/08 13:29:18;;;;;;;6.90;2.13;;;;;;;;;;5303722;28;20040;-67
2022/03/08 13:31:50;;;;;;;6.78;2.45;;;;;;;;;;5303840;28;20024;-68
2022/03/08 13:34:22;;;;;;;4.25;2.47;;;;;;;;;;5303689;28;20036;-67
2022/03/08 13:36:57;;;;;;;4.30;2.15;;;;;;;;;;5303686;28;20024;-67
2022/03/08 13:39:28;;;;;;;7.72;2.35;;;;;;;;;;5304212;28;20107;-67
2022/03/08 13:41:59;;;;;;;5.64;2.44;;;;;;;;;;5302871;28;20107;-67
2022/03/08 13:44:30;;;;;;;6.40;2.22;;;;;;;;;;5303528;28;20032;-68
2022/03/08 13:47:01;;;;;;;4.05;2.08;;;;;;;;;;5303462;28;20270;-68
2022/03/08 13:49:33;;;;;;;6.65;2.45;;;;;;;;;;5303041;28;20478;-67
2022/03/08 13:52:05;;;;;;;6.22;2.72;;;;;;;;;;5303587;28;20032;-67
2022/03/08 13:54:39;;;;;;;5.80;2.40;;;;;;;;;;5303827;28;20028;-67
2022/03/08 13:57:11;;;;;;;6.10;3.05;;;;;;;;;;5302916;28;20016;-67
2022/03/08 13:59:44;;;;;;;6.10;3.00;;;;;;;;;;5303398;28;20044;-67
2022/03/08 14:02:20;;;;;;;4.25;1.98;;;;;;;;;;5302856;28;20024;-68
2022/03/08 14:04:51;;;;;;;4.82;2.38;;;;;;;;;;5303408;28;20417;-68
2022/03/08 14:07:22;;;;;;;7.95;2.75;;;;;;;;;;5308387;28;20016;-68
2022/03/08 14:09:54;;;;;;;7.88;2.85;;;;;;;;;;5304051;28;20409;-67
2022/03/08 14:12:26;;;;;;;4.07;2.40;;;;;;;;;;5301100;28;20137;-67
2022/03/08 14:15:02;;;;;;;7.50;2.53;;;;;;;;;;5300388;28;20076;-67
2022/03/08 14:17:33;;;;;;;8.02;2.15;;;;;;;;;;5300233;28;20076;-67
2022/03/08 14:20:14;;;;;;;6.78;2.58;;;;;;;;;;5300908;28;20028;-67
2022/03/08 14:23:01;;;;;;;5.68;2.25;;;;;;;;;;5301042;28;20282;-67
2022/03/08 14:25:34;;;;;;;5.68;2.28;;;;;;;;;;5301434;28;20024;-67
2022/03/08 14:28:05;;;;;;;5.53;2.90;;;;;;;;;;5301656;28;20020;-67
2022/03/08 14:30:37;;;;;;;3.45;2.72;;;;;;;;;;5301127;28;20553;-67
2022/03/08 14:33:09;;;;;;;4.63;2.33;;;;;;;;;;5302637;28;20035;-67
2022/03/08 14:35:45;;;;;;;3.72;2.38;;;;;;;;;;5302721;28;20382;-67
2022/03/08 14:38:16;;;;;;;6.72;2.70;;;;;;;;;;5302483;28;20016;-66
2022/03/08 14:40:48;;;;;;;5.28;2.10;;;;;;;;;;5302886;28;20039;-67
2022/03/08 14:43:19;;;;;;;11.32;2.55;;;;;;;;;;5302780;28;20020;-67
2022/03/08 14:45:50;;;;;;;5.85;2.63;;;;;;;;;;5301557;28;20486;-67
2022/03/08 14:48:22;;;;;;;7.35;2.28;;;;;;;;;;5302864;28;20108;-67
2022/03/08 14:50:53;;;;;;;6.40;2.17;;;;;;;;;;5302444;28;20280;-67
2022/03/08 14:53:24;;;;;;;3.83;1.80;;;;;;;;;;5303345;28;20032;-67
2022/03/08 14:55:55;;;;;;;6.60;2.05;;;;;;;;;;5311218;28;20313;-67
2022/03/08 14:58:27;;;;;;;6.22;2.17;;;;;;;;;;5318718;28;20775;-67
2022/03/08 15:00:58;;;;;;;6.15;2.55;;;;;;;;;;5323637;28;20326;-67
2022/03/08 15:03:29;;;;;;;6.03;1.95;;;;;;;;;;5311783;28;20300;-68
2022/03/08 15:06:00;;;;;;;5.13;1.77;;;;;;;;;;5316662;28;20277;-65
2022/03/08 15:08:32;;;;;;;3.15;2.08;;;;;;;;;;5322514;28;20012;-66
2022/03/08 15:11:03;;;;;;;5.05;1.95;;;;;;;;;;5322646;28;20552;-67
2022/03/08 15:13:34;;;;;;;4.93;2.30;;;;;;;;;;5322643;28;20033;-67
2022/03/08 15:16:07;;;;;;;4.66;2.26;;;;;;;;;;5323799;28;20020;-67